Marshallville, Kentucky
Current Conditions -  °F | °C
As of 4:53 AM on Wednesday 26 Nov 2014 (Local Time) from KJKL Reporting Station
Broken Clouds Broken Clouds  
Wind Chill:   Ceiling: 12000
Heat Index:   Visibility: 10mi
Dew Point: -2°   Wind: 3mph
Humidity: 76%   Direction: 60°ENE
Pressure: 30.01"   Gusts: NA
Location:  37.76°N, 83.05°W
Report Text: KJKL 260953Z AUTO 06003KT 10SM SCT080 BKN120 02/M02 A3001 RMK AO2 SLP165 T00171022
Loading
Personal Weather Stations






























Interactive Weather Map New forecast layout! Learn more

10-Day Weather Forecast

Advertisements
Track Severe Weather on mobile